LVLHI SANT-ZZZZ
Flight info
| Callsign | LVLHI |
|---|---|
| Flight time | N/A |
| Altitude | 4000 |
| Route | DCT |
| Aircraft | C414/M-V/N |
Departure
| Time | 2026-05-04 19:37 |
|---|---|
| Airport | Teniente Benjamín Matienzo International Airport (SANT) |
Arrival
| Time | N/A |
|---|---|
| Airport | ZZZZ |
| Time | Latitude | Longitude | Altitude | Speed | Heading |
|---|---|---|---|---|---|
| 2026-05-04 19:36 | -26.81105 | -65.15617 | 4143 ft | 151 kts | 231° |
| 2026-05-04 19:37 | -26.81784 | -65.16531 | 4400 ft | 161 kts | 249° |
| 2026-05-04 19:37 | -26.81947 | -65.17914 | 4014 ft | 194 kts | 274° |
| 2026-05-04 19:37 | -26.81840 | -65.19404 | 3858 ft | 202 kts | 277° |
| 2026-05-04 19:37 | -26.81679 | -65.20980 | 3754 ft | 201 kts | 278° |
| 2026-05-04 19:38 | -26.81532 | -65.22481 | 3695 ft | 186 kts | 277° |
| 2026-05-04 19:38 | -26.81364 | -65.23891 | 3566 ft | 183 kts | 278° |
| 2026-05-04 19:38 | -26.81181 | -65.25306 | 3380 ft | 182 kts | 278° |
| 2026-05-04 19:38 | -26.80989 | -65.26634 | 3240 ft | 167 kts | 278° |
| 2026-05-04 19:39 | -26.80831 | -65.27872 | 3054 ft | 155 kts | 286° |
| 2026-05-04 19:39 | -26.80099 | -65.28443 | 3007 ft | 137 kts | 6° |
| 2026-05-04 19:39 | -26.79274 | -65.27964 | 2985 ft | 132 kts | 51° |
| 2026-05-04 19:39 | -26.79201 | -65.27032 | 2854 ft | 132 kts | 128° |
| 2026-05-04 19:40 | -26.80018 | -65.26962 | 2702 ft | 132 kts | 229° |
| 2026-05-04 19:40 | -26.80095 | -65.27907 | 2535 ft | 123 kts | 278° |
| 2026-05-04 19:40 | -26.79937 | -65.28832 | 2324 ft | 116 kts | 282° |
| 2026-05-04 19:40 | -26.79804 | -65.29651 | 2035 ft | 98 kts | 279° |
| 2026-05-04 19:41 | -26.79686 | -65.30396 | 1829 ft | 92 kts | 279° |
| 2026-05-04 19:41 | -26.79599 | -65.30965 | 1878 ft | 59 kts | 280° |
| 2026-05-04 19:41 | -26.79553 | -65.31285 | 1907 ft | 13 kts | 279° |
| 2026-05-04 19:41 | -26.79547 | -65.31331 | 1912 ft | 0 kts | 277° |
| 2026-05-04 19:42 | -26.79545 | -65.31378 | 1916 ft | 8 kts | 269° |
| 2026-05-04 19:42 | -26.79556 | -65.31383 | 1907 ft | 3 kts | 89° |
| 2026-05-04 19:42 | -26.79556 | -65.31380 | 1903 ft | 0 kts | 102° |
| 2026-05-04 19:42 | -26.79544 | -65.31358 | 1914 ft | 11 kts | 348° |
| 2026-05-04 19:43 | -26.79507 | -65.31428 | 1923 ft | 5 kts | 265° |
| 2026-05-04 19:43 | -26.79517 | -65.31437 | 1923 ft | 4 kts | 171° |
| 2026-05-04 19:43 | -26.79539 | -65.31301 | 1907 ft | 48 kts | 101° |
| 2026-05-04 19:43 | -26.79635 | -65.30743 | 1867 ft | 99 kts | 101° |
| 2026-05-04 19:44 | -26.79780 | -65.29900 | 2194 ft | 108 kts | 95° |
| 2026-05-04 19:44 | -26.79494 | -65.29147 | 2551 ft | 115 kts | 50° |
| 2026-05-04 19:44 | -26.79722 | -65.28517 | 2324 ft | 115 kts | 178° |
| 2026-05-04 19:44 | -26.80134 | -65.29050 | 2153 ft | 100 kts | 289° |
| 2026-05-04 19:45 | -26.79841 | -65.29727 | 1959 ft | 92 kts | 291° |
| 2026-05-04 19:45 | -26.79697 | -65.30356 | 1810 ft | 74 kts | 277° |
| 2026-05-04 19:45 | -26.79629 | -65.30775 | 1857 ft | 38 kts | 274° |
| 2026-05-04 19:45 | -26.79589 | -65.30995 | 1881 ft | 22 kts | 279° |
| 2026-05-04 19:46 | -26.79561 | -65.31157 | 1895 ft | 22 kts | 286° |
| 2026-05-04 19:46 | -26.79523 | -65.31313 | 1910 ft | 15 kts | 282° |
| 2026-05-04 19:46 | -26.79506 | -65.31389 | 1911 ft | 6 kts | 281° |
| 2026-05-04 19:46 | -26.79504 | -65.31417 | 1921 ft | 8 kts | 273° |
| 2026-05-04 19:47 | -26.79524 | -65.31436 | 1922 ft | 6 kts | 94° |
| 2026-05-04 19:47 | -26.79528 | -65.31410 | 1912 ft | 20 kts | 100° |
| 2026-05-04 19:47 | -26.79593 | -65.31008 | 1882 ft | 82 kts | 101° |
| 2026-05-04 19:47 | -26.79724 | -65.30260 | 1997 ft | 105 kts | 102° |
| 2026-05-04 19:48 | -26.80033 | -65.29487 | 2248 ft | 117 kts | 133° |
| 2026-05-04 19:48 | -26.80785 | -65.28991 | 2460 ft | 140 kts | 156° |
| 2026-05-04 19:48 | -26.81889 | -65.28904 | 2299 ft | 179 kts | 190° |
| 2026-05-04 19:48 | -26.83096 | -65.28973 | 2535 ft | 172 kts | 140° |
| 2026-05-04 19:49 | -26.83552 | -65.27746 | 2841 ft | 171 kts | 105° |
| 2026-05-04 19:49 | -26.83883 | -65.26457 | 3002 ft | 169 kts | 103° |
| 2026-05-04 19:49 | -26.83702 | -65.25379 | 3386 ft | 148 kts | 22° |
| 2026-05-04 19:49 | -26.83069 | -65.26113 | 3114 ft | 176 kts | 271° |
| 2026-05-04 19:50 | -26.83258 | -65.27488 | 2936 ft | 177 kts | 256° |
| 2026-05-04 19:50 | -26.83227 | -65.28778 | 2625 ft | 171 kts | 304° |
| 2026-05-04 19:50 | -26.82146 | -65.29148 | 2340 ft | 166 kts | 12° |
| 2026-05-04 19:50 | -26.81132 | -65.28813 | 2393 ft | 136 kts | 15° |
| 2026-05-04 19:51 | -26.80293 | -65.28644 | 2295 ft | 114 kts | 344° |
| 2026-05-04 19:51 | -26.79866 | -65.29239 | 2128 ft | 102 kts | 279° |
| 2026-05-04 19:51 | -26.79762 | -65.30000 | 1933 ft | 96 kts | 282° |
| 2026-05-04 19:51 | -26.79637 | -65.30697 | 1852 ft | 79 kts | 280° |
| 2026-05-04 19:52 | -26.79565 | -65.31182 | 1893 ft | 38 kts | 278° |
| 2026-05-04 19:52 | -26.79521 | -65.31346 | 1906 ft | 14 kts | 275° |
| 2026-05-04 19:52 | -26.79535 | -65.31408 | 1916 ft | 4 kts | 206° |
| 2026-05-04 19:52 | -26.79550 | -65.31414 | 1920 ft | 3 kts | 193° |
| 2026-05-04 19:53 | -26.79562 | -65.31402 | 1914 ft | 4 kts | 105° |
| 2026-05-04 19:53 | -26.79563 | -65.31400 | 1914 ft | 0 kts | 104° |
| 2026-05-04 20:26 | -26.79547 | -65.31390 | 1908 ft | 5 kts | 339° |
| 2026-05-04 20:26 | -26.79522 | -65.31404 | 1919 ft | 3 kts | 329° |
| 2026-05-04 20:26 | -26.79502 | -65.31419 | 1921 ft | 1 kts | 324° |
| 2026-05-04 20:26 | -26.79496 | -65.31436 | 1923 ft | 4 kts | 237° |
| 2026-05-04 20:27 | -26.79502 | -65.31441 | 1923 ft | 0 kts | 193° |